sensor_id;sensor_type;location;lat;lon;timestamp;pressure;altitude;pressure_sealevel;temperature;humidity
61478;BME280;47345;52.334;10.392;2022-11-12T00:00:31;102472.13;;;6.27;79.43
61478;BME280;47345;52.334;10.392;2022-11-12T00:03:02;102467.91;;;6.23;79.00
61478;BME280;47345;52.334;10.392;2022-11-12T00:05:33;102466.60;;;6.19;78.53
61478;BME280;47345;52.334;10.392;2022-11-12T00:08:04;102468.95;;;6.15;78.62
61478;BME280;47345;52.334;10.392;2022-11-12T00:10:35;102470.07;;;6.13;78.88
61478;BME280;47345;52.334;10.392;2022-11-12T00:13:06;102471.94;;;6.10;78.94
61478;BME280;47345;52.334;10.392;2022-11-12T00:15:36;102467.25;;;6.08;78.95
61478;BME280;47345;52.334;10.392;2022-11-12T00:18:07;102474.13;;;6.06;79.34
61478;BME280;47345;52.334;10.392;2022-11-12T00:20:38;102475.02;;;6.04;79.27
61478;BME280;47345;52.334;10.392;2022-11-12T00:23:08;102472.58;;;6.03;79.36
61478;BME280;47345;52.334;10.392;2022-11-12T00:25:39;102475.06;;;6.01;79.61
61478;BME280;47345;52.334;10.392;2022-11-12T00:28:10;102477.03;;;6.01;79.92
61478;BME280;47345;52.334;10.392;2022-11-12T00:30:41;102479.00;;;6.02;80.24
61478;BME280;47345;52.334;10.392;2022-11-12T00:33:11;102479.55;;;6.02;80.33
61478;BME280;47345;52.334;10.392;2022-11-12T00:35:42;102482.84;;;6.01;80.26
61478;BME280;47345;52.334;10.392;2022-11-12T00:38:13;102483.86;;;6.02;80.50
61478;BME280;47345;52.334;10.392;2022-11-12T00:40:43;102485.42;;;6.03;80.54
61478;BME280;47345;52.334;10.392;2022-11-12T00:43:13;102486.63;;;6.03;80.68
61478;BME280;47345;52.334;10.392;2022-11-12T00:45:44;102484.94;;;6.04;80.61
61478;BME280;47345;52.334;10.392;2022-11-12T00:48:14;102489.95;;;6.05;80.61
61478;BME280;47345;52.334;10.392;2022-11-12T00:50:45;102486.04;;;6.04;80.76
61478;BME280;47345;52.334;10.392;2022-11-12T00:53:16;102490.83;;;6.05;80.90
61478;BME280;47345;52.334;10.392;2022-11-12T00:55:46;102490.59;;;6.06;80.98
61478;BME280;47345;52.334;10.392;2022-11-12T00:58:17;102494.77;;;6.06;80.63
61478;BME280;47345;52.334;10.392;2022-11-12T01:00:47;102496.44;;;6.05;80.35
61478;BME280;47345;52.334;10.392;2022-11-12T01:03:18;102493.56;;;6.03;80.39
61478;BME280;47345;52.334;10.392;2022-11-12T01:05:48;102504.45;;;6.05;80.53
61478;BME280;47345;52.334;10.392;2022-11-12T01:08:19;102500.67;;;6.04;80.74
61478;BME280;47345;52.334;10.392;2022-11-12T01:10:49;102501.71;;;6.05;80.88
61478;BME280;47345;52.334;10.392;2022-11-12T01:13:20;102503.36;;;6.05;80.82
61478;BME280;47345;52.334;10.392;2022-11-12T01:15:50;102502.42;;;6.05;80.89
61478;BME280;47345;52.334;10.392;2022-11-12T01:18:21;102509.27;;;6.06;80.99
61478;BME280;47345;52.334;10.392;2022-11-12T01:20:53;102511.80;;;6.06;80.79
61478;BME280;47345;52.334;10.392;2022-11-12T01:23:24;102507.48;;;6.05;80.91
61478;BME280;47345;52.334;10.392;2022-11-12T01:25:54;102506.71;;;6.06;80.82
61478;BME280;47345;52.334;10.392;2022-11-12T01:28:25;102510.52;;;6.06;80.85
61478;BME280;47345;52.334;10.392;2022-11-12T01:30:56;102512.49;;;6.06;81.02
61478;BME280;47345;52.334;10.392;2022-11-12T01:33:26;102513.98;;;6.06;81.13
61478;BME280;47345;52.334;10.392;2022-11-12T01:35:59;102517.05;;;6.06;80.93
61478;BME280;47345;52.334;10.392;2022-11-12T01:38:34;102514.12;;;6.06;81.17
61478;BME280;47345;52.334;10.392;2022-11-12T01:41:05;102513.55;;;6.07;81.30
61478;BME280;47345;52.334;10.392;2022-11-12T01:43:36;102512.80;;;6.07;81.34
61478;BME280;47345;52.334;10.392;2022-11-12T01:46:13;102510.66;;;6.07;81.24
61478;BME280;47345;52.334;10.392;2022-11-12T01:48:49;102508.83;;;6.07;81.15
61478;BME280;47345;52.334;10.392;2022-11-12T01:51:24;102512.55;;;6.05;81.18
61478;BME280;47345;52.334;10.392;2022-11-12T01:53:59;102510.17;;;6.06;81.29
61478;BME280;47345;52.334;10.392;2022-11-12T01:56:32;102516.55;;;6.05;81.25
61478;BME280;47345;52.334;10.392;2022-11-12T01:59:05;102508.05;;;6.05;81.31
61478;BME280;47345;52.334;10.392;2022-11-12T02:01:38;102510.80;;;6.05;81.37
61478;BME280;47345;52.334;10.392;2022-11-12T02:04:09;102509.14;;;6.05;81.64
61478;BME280;47345;52.334;10.392;2022-11-12T02:06:40;102510.58;;;6.05;81.54
61478;BME280;47345;52.334;10.392;2022-11-12T02:09:13;102508.89;;;6.06;81.51
61478;BME280;47345;52.334;10.392;2022-11-12T02:11:44;102510.52;;;6.06;81.47
61478;BME280;47345;52.334;10.392;2022-11-12T02:14:15;102510.86;;;6.04;81.38
61478;BME280;47345;52.334;10.392;2022-11-12T02:16:46;102511.10;;;6.03;81.43
61478;BME280;47345;52.334;10.392;2022-11-12T02:19:18;102513.70;;;6.02;81.45
61478;BME280;47345;52.334;10.392;2022-11-12T02:21:49;102513.44;;;6.01;81.46
61478;BME280;47345;52.334;10.392;2022-11-12T02:24:36;102511.36;;;6.00;81.36
61478;BME280;47345;52.334;10.392;2022-11-12T02:27:07;102508.36;;;5.99;81.31
61478;BME280;47345;52.334;10.392;2022-11-12T02:29:38;102507.76;;;5.98;81.30
61478;BME280;47345;52.334;10.392;2022-11-12T02:32:14;102506.20;;;5.97;81.29
61478;BME280;47345;52.334;10.392;2022-11-12T02:34:46;102508.40;;;5.97;81.31
61478;BME280;47345;52.334;10.392;2022-11-12T02:37:16;102507.02;;;5.96;81.31
61478;BME280;47345;52.334;10.392;2022-11-12T02:39:47;102509.48;;;5.95;81.26
61478;BME280;47345;52.334;10.392;2022-11-12T02:42:19;102511.34;;;5.92;80.78
61478;BME280;47345;52.334;10.392;2022-11-12T02:44:50;102506.37;;;5.88;80.81
61478;BME280;47345;52.334;10.392;2022-11-12T02:47:22;102498.98;;;5.86;80.92
61478;BME280;47345;52.334;10.392;2022-11-12T02:49:52;102491.65;;;5.83;80.73
61478;BME280;47345;52.334;10.392;2022-11-12T02:52:23;102489.70;;;5.80;80.86
61478;BME280;47345;52.334;10.392;2022-11-12T02:54:54;102495.19;;;5.80;80.79
61478;BME280;47345;52.334;10.392;2022-11-12T02:57:24;102494.38;;;5.79;81.03
61478;BME280;47345;52.334;10.392;2022-11-12T02:59:55;102498.31;;;5.77;81.26
61478;BME280;47345;52.334;10.392;2022-11-12T03:02:25;102496.85;;;5.77;81.66
61478;BME280;47345;52.334;10.392;2022-11-12T03:04:57;102493.77;;;5.77;81.67
61478;BME280;47345;52.334;10.392;2022-11-12T03:07:28;102494.65;;;5.78;81.50
61478;BME280;47345;52.334;10.392;2022-11-12T03:09:58;102494.79;;;5.78;81.50
61478;BME280;47345;52.334;10.392;2022-11-12T03:12:30;102491.53;;;5.78;81.42
61478;BME280;47345;52.334;10.392;2022-11-12T03:15:01;102491.77;;;5.77;81.47
61478;BME280;47345;52.334;10.392;2022-11-12T03:17:32;102490.92;;;5.76;81.35
61478;BME280;47345;52.334;10.392;2022-11-12T03:20:03;102486.75;;;5.76;81.56
61478;BME280;47345;52.334;10.392;2022-11-12T03:22:35;102491.95;;;5.75;81.26
61478;BME280;47345;52.334;10.392;2022-11-12T03:25:08;102490.77;;;5.74;81.39
61478;BME280;47345;52.334;10.392;2022-11-12T03:27:38;102490.48;;;5.71;81.43
61478;BME280;47345;52.334;10.392;2022-11-12T03:30:10;102490.95;;;5.70;81.70
61478;BME280;47345;52.334;10.392;2022-11-12T03:32:41;102492.69;;;5.68;81.84
61478;BME280;47345;52.334;10.392;2022-11-12T03:35:11;102495.91;;;5.67;81.51
61478;BME280;47345;52.334;10.392;2022-11-12T03:37:42;102492.67;;;5.65;81.08
61478;BME280;47345;52.334;10.392;2022-11-12T03:40:12;102493.45;;;5.62;80.37
61478;BME280;47345;52.334;10.392;2022-11-12T03:42:46;102494.30;;;5.58;80.07
61478;BME280;47345;52.334;10.392;2022-11-12T03:45:18;102491.27;;;5.53;79.87
61478;BME280;47345;52.334;10.392;2022-11-12T03:47:51;102486.80;;;5.48;79.82
61478;BME280;47345;52.334;10.392;2022-11-12T03:50:24;102487.23;;;5.45;79.71
61478;BME280;47345;52.334;10.392;2022-11-12T03:52:57;102485.84;;;5.42;79.74
61478;BME280;47345;52.334;10.392;2022-11-12T03:55:29;102484.84;;;5.39;79.81
61478;BME280;47345;52.334;10.392;2022-11-12T03:57:59;102487.59;;;5.37;80.09
61478;BME280;47345;52.334;10.392;2022-11-12T04:00:30;102487.33;;;5.36;80.19
61478;BME280;47345;52.334;10.392;2022-11-12T04:03:00;102485.58;;;5.32;80.13
61478;BME280;47345;52.334;10.392;2022-11-12T04:05:31;102488.96;;;5.29;80.29
61478;BME280;47345;52.334;10.392;2022-11-12T04:08:20;102498.70;;;5.25;80.61
61478;BME280;47345;52.334;10.392;2022-11-12T04:11:09;102501.20;;;5.23;80.87
61478;BME280;47345;52.334;10.392;2022-11-12T04:13:40;102497.00;;;5.21;81.44
61478;BME280;47345;52.334;10.392;2022-11-12T04:16:13;102492.77;;;5.20;81.50
61478;BME280;47345;52.334;10.392;2022-11-12T04:19:03;102492.08;;;5.18;81.78
61478;BME280;47345;52.334;10.392;2022-11-12T04:21:53;102490.13;;;5.17;82.38
61478;BME280;47345;52.334;10.392;2022-11-12T04:24:28;102492.88;;;5.16;82.26
61478;BME280;47345;52.334;10.392;2022-11-12T04:27:18;102497.15;;;5.15;81.87
61478;BME280;47345;52.334;10.392;2022-11-12T04:29:49;102497.61;;;5.14;81.86
61478;BME280;47345;52.334;10.392;2022-11-12T04:32:40;102492.84;;;5.13;81.94
61478;BME280;47345;52.334;10.392;2022-11-12T04:35:14;102495.63;;;5.12;81.90
61478;BME280;47345;52.334;10.392;2022-11-12T04:37:47;102491.89;;;5.09;81.86
61478;BME280;47345;52.334;10.392;2022-11-12T04:40:20;102491.26;;;5.06;82.00
61478;BME280;47345;52.334;10.392;2022-11-12T04:43:11;102488.81;;;5.05;82.38
61478;BME280;47345;52.334;10.392;2022-11-12T04:46:00;102489.98;;;5.03;82.29
61478;BME280;47345;52.334;10.392;2022-11-12T04:48:31;102496.47;;;5.01;81.64
61478;BME280;47345;52.334;10.392;2022-11-12T04:51:03;102501.35;;;4.99;81.01
61478;BME280;47345;52.334;10.392;2022-11-12T04:53:54;102503.15;;;4.93;80.28
61478;BME280;47345;52.334;10.392;2022-11-12T04:56:25;102495.27;;;4.87;79.91
61478;BME280;47345;52.334;10.392;2022-11-12T04:58:55;102490.02;;;4.83;80.06
61478;BME280;47345;52.334;10.392;2022-11-12T05:01:26;102484.51;;;4.80;80.09
61478;BME280;47345;52.334;10.392;2022-11-12T05:03:57;102491.08;;;4.77;80.48
61478;BME280;47345;52.334;10.392;2022-11-12T05:06:27;102496.02;;;4.74;80.44
61478;BME280;47345;52.334;10.392;2022-11-12T05:09:16;102500.02;;;4.71;80.30
61478;BME280;47345;52.334;10.392;2022-11-12T05:11:46;102494.59;;;4.69;80.57
61478;BME280;47345;52.334;10.392;2022-11-12T05:14:17;102498.23;;;4.67;80.78
61478;BME280;47345;52.334;10.392;2022-11-12T05:16:48;102494.17;;;4.65;81.09
61478;BME280;47345;52.334;10.392;2022-11-12T05:19:19;102490.93;;;4.63;81.17
61478;BME280;47345;52.334;10.392;2022-11-12T05:21:49;102495.48;;;4.65;81.28
61478;BME280;47345;52.334;10.392;2022-11-12T05:24:43;102487.77;;;4.64;81.33
61478;BME280;47345;52.334;10.392;2022-11-12T05:27:15;102493.06;;;4.64;81.44
61478;BME280;47345;52.334;10.392;2022-11-12T05:29:46;102493.89;;;4.62;81.34
61478;BME280;47345;52.334;10.392;2022-11-12T05:32:17;102496.77;;;4.60;81.04
61478;BME280;47345;52.334;10.392;2022-11-12T05:34:48;102498.23;;;4.58;81.12
61478;BME280;47345;52.334;10.392;2022-11-12T05:37:18;102497.63;;;4.56;80.94
61478;BME280;47345;52.334;10.392;2022-11-12T05:39:49;102492.63;;;4.55;80.87
61478;BME280;47345;52.334;10.392;2022-11-12T05:42:20;102497.11;;;4.53;80.64
61478;BME280;47345;52.334;10.392;2022-11-12T05:44:51;102499.24;;;4.52;80.43
61478;BME280;47345;52.334;10.392;2022-11-12T05:47:22;102500.64;;;4.50;80.74
61478;BME280;47345;52.334;10.392;2022-11-12T05:49:53;102499.04;;;4.48;80.77
61478;BME280;47345;52.334;10.392;2022-11-12T05:52:23;102501.60;;;4.47;80.78
61478;BME280;47345;52.334;10.392;2022-11-12T05:54:54;102500.84;;;4.45;79.98
61478;BME280;47345;52.334;10.392;2022-11-12T05:57:27;102500.10;;;4.41;80.07
61478;BME280;47345;52.334;10.392;2022-11-12T05:59:57;102502.69;;;4.38;79.87
61478;BME280;47345;52.334;10.392;2022-11-12T06:02:28;102503.84;;;4.35;80.27
61478;BME280;47345;52.334;10.392;2022-11-12T06:04:58;102505.15;;;4.34;80.68
61478;BME280;47345;52.334;10.392;2022-11-12T06:07:29;102505.33;;;4.34;80.55
61478;BME280;47345;52.334;10.392;2022-11-12T06:10:00;102499.28;;;4.33;80.30
61478;BME280;47345;52.334;10.392;2022-11-12T06:12:30;102498.89;;;4.31;80.15
61478;BME280;47345;52.334;10.392;2022-11-12T06:15:01;102494.25;;;4.28;79.99
61478;BME280;47345;52.334;10.392;2022-11-12T06:17:31;102498.41;;;4.25;80.20
61478;BME280;47345;52.334;10.392;2022-11-12T06:20:02;102502.17;;;4.24;80.18
61478;BME280;47345;52.334;10.392;2022-11-12T06:22:32;102507.95;;;4.24;80.24
61478;BME280;47345;52.334;10.392;2022-11-12T06:25:04;102506.66;;;4.20;79.83
61478;BME280;47345;52.334;10.392;2022-11-12T06:27:34;102505.69;;;4.16;80.07
61478;BME280;47345;52.334;10.392;2022-11-12T06:30:06;102509.75;;;4.12;79.86
61478;BME280;47345;52.334;10.392;2022-11-12T06:32:37;102522.54;;;4.08;79.72
61478;BME280;47345;52.334;10.392;2022-11-12T06:35:08;102522.05;;;3.98;79.46
61478;BME280;47345;52.334;10.392;2022-11-12T06:37:39;102518.96;;;3.94;80.17
61478;BME280;47345;52.334;10.392;2022-11-12T06:40:10;102517.90;;;3.93;80.42
61478;BME280;47345;52.334;10.392;2022-11-12T06:42:41;102518.57;;;3.94;80.60
61478;BME280;47345;52.334;10.392;2022-11-12T06:45:12;102523.32;;;3.96;80.60
61478;BME280;47345;52.334;10.392;2022-11-12T06:47:42;102519.96;;;3.97;80.78
61478;BME280;47345;52.334;10.392;2022-11-12T06:50:14;102519.12;;;3.99;80.90
61478;BME280;47345;52.334;10.392;2022-11-12T06:52:45;102518.27;;;4.00;81.16
61478;BME280;47345;52.334;10.392;2022-11-12T06:55:16;102517.39;;;4.03;81.38
61478;BME280;47345;52.334;10.392;2022-11-12T06:57:51;102521.84;;;4.05;81.59
61478;BME280;47345;52.334;10.392;2022-11-12T07:00:22;102525.94;;;4.06;81.43
61478;BME280;47345;52.334;10.392;2022-11-12T07:02:53;102527.37;;;4.07;81.19
61478;BME280;47345;52.334;10.392;2022-11-12T07:05:24;102528.52;;;4.08;81.38
61478;BME280;47345;52.334;10.392;2022-11-12T07:07:56;102534.41;;;4.09;81.14
61478;BME280;47345;52.334;10.392;2022-11-12T07:10:26;102537.14;;;4.08;80.97
61478;BME280;47345;52.334;10.392;2022-11-12T07:12:57;102539.31;;;4.09;80.69
61478;BME280;47345;52.334;10.392;2022-11-12T07:15:28;102539.96;;;4.07;80.83
61478;BME280;47345;52.334;10.392;2022-11-12T07:17:58;102540.77;;;4.08;81.15
61478;BME280;47345;52.334;10.392;2022-11-12T07:20:29;102543.09;;;4.11;81.30
61478;BME280;47345;52.334;10.392;2022-11-12T07:23:01;102540.69;;;4.13;81.60
61478;BME280;47345;52.334;10.392;2022-11-12T07:25:32;102540.07;;;4.18;82.08
61478;BME280;47345;52.334;10.392;2022-11-12T07:28:03;102543.64;;;4.20;82.22
61478;BME280;47345;52.334;10.392;2022-11-12T07:30:33;102541.43;;;4.23;82.41
61478;BME280;47345;52.334;10.392;2022-11-12T07:33:04;102544.42;;;4.26;82.51
61478;BME280;47345;52.334;10.392;2022-11-12T07:35:35;102546.52;;;4.29;82.76
61478;BME280;47345;52.334;10.392;2022-11-12T07:38:06;102543.20;;;4.33;82.91
61478;BME280;47345;52.334;10.392;2022-11-12T07:40:37;102543.27;;;4.36;82.92
61478;BME280;47345;52.334;10.392;2022-11-12T07:43:08;102537.70;;;4.38;82.66
61478;BME280;47345;52.334;10.392;2022-11-12T07:45:39;102536.27;;;4.40;82.48
61478;BME280;47345;52.334;10.392;2022-11-12T07:48:10;102547.04;;;4.41;82.46
61478;BME280;47345;52.334;10.392;2022-11-12T07:50:40;102547.61;;;4.41;82.32
61478;BME280;47345;52.334;10.392;2022-11-12T07:53:11;102542.84;;;4.37;82.53
61478;BME280;47345;52.334;10.392;2022-11-12T07:55:41;102541.63;;;4.37;82.96
61478;BME280;47345;52.334;10.392;2022-11-12T07:58:12;102548.67;;;4.39;83.37
61478;BME280;47345;52.334;10.392;2022-11-12T08:00:42;102550.83;;;4.41;83.45
61478;BME280;47345;52.334;10.392;2022-11-12T08:03:13;102550.20;;;4.45;83.40
61478;BME280;47345;52.334;10.392;2022-11-12T08:05:43;102544.42;;;4.47;83.30
61478;BME280;47345;52.334;10.392;2022-11-12T08:08:15;102545.54;;;4.51;83.28
61478;BME280;47345;52.334;10.392;2022-11-12T08:10:45;102546.17;;;4.54;83.26
61478;BME280;47345;52.334;10.392;2022-11-12T08:13:15;102545.09;;;4.57;83.05
61478;BME280;47345;52.334;10.392;2022-11-12T08:15:46;102547.70;;;4.60;83.28
61478;BME280;47345;52.334;10.392;2022-11-12T08:18:20;102550.98;;;4.62;83.43
61478;BME280;47345;52.334;10.392;2022-11-12T08:20:51;102558.87;;;4.68;83.55
61478;BME280;47345;52.334;10.392;2022-11-12T08:23:21;102563.36;;;4.70;83.33
61478;BME280;47345;52.334;10.392;2022-11-12T08:25:52;102564.71;;;4.74;83.54
61478;BME280;47345;52.334;10.392;2022-11-12T08:28:26;102563.60;;;4.77;83.49
61478;BME280;47345;52.334;10.392;2022-11-12T08:31:01;102561.92;;;4.79;83.56
61478;BME280;47345;52.334;10.392;2022-11-12T08:33:32;102563.55;;;4.81;83.41
61478;BME280;47345;52.334;10.392;2022-11-12T08:36:05;102562.00;;;4.83;83.38
61478;BME280;47345;52.334;10.392;2022-11-12T08:38:36;102567.62;;;4.85;83.36
61478;BME280;47345;52.334;10.392;2022-11-12T08:41:09;102569.68;;;4.86;83.56
61478;BME280;47345;52.334;10.392;2022-11-12T08:43:40;102564.15;;;4.87;83.59
61478;BME280;47345;52.334;10.392;2022-11-12T08:46:11;102560.33;;;4.87;83.50
61478;BME280;47345;52.334;10.392;2022-11-12T08:48:42;102562.54;;;4.90;83.58
61478;BME280;47345;52.334;10.392;2022-11-12T08:51:13;102563.94;;;4.90;83.28
61478;BME280;47345;52.334;10.392;2022-11-12T08:53:44;102568.51;;;4.92;83.40
61478;BME280;47345;52.334;10.392;2022-11-12T08:56:15;102569.85;;;4.93;83.41
61478;BME280;47345;52.334;10.392;2022-11-12T08:58:46;102579.20;;;4.94;83.64
61478;BME280;47345;52.334;10.392;2022-11-12T09:01:17;102586.98;;;4.94;83.77
61478;BME280;47345;52.334;10.392;2022-11-12T09:03:49;102583.13;;;4.92;84.03
61478;BME280;47345;52.334;10.392;2022-11-12T09:06:20;102575.16;;;4.92;84.28
61478;BME280;47345;52.334;10.392;2022-11-12T09:08:50;102574.94;;;4.95;84.22
61478;BME280;47345;52.334;10.392;2022-11-12T09:11:21;102582.63;;;4.98;84.47
61478;BME280;47345;52.334;10.392;2022-11-12T09:13:54;102593.30;;;5.02;84.75
61478;BME280;47345;52.334;10.392;2022-11-12T09:16:25;102598.30;;;5.06;85.13
61478;BME280;47345;52.334;10.392;2022-11-12T09:18:56;102586.78;;;5.10;85.26
61478;BME280;47345;52.334;10.392;2022-11-12T09:21:26;102590.02;;;5.14;85.35
61478;BME280;47345;52.334;10.392;2022-11-12T09:23:57;102593.40;;;5.19;85.57
61478;BME280;47345;52.334;10.392;2022-11-12T09:26:28;102596.04;;;5.25;85.70
61478;BME280;47345;52.334;10.392;2022-11-12T09:28:59;102592.11;;;5.31;85.77
61478;BME280;47345;52.334;10.392;2022-11-12T09:31:29;102586.77;;;5.36;85.92
61478;BME280;47345;52.334;10.392;2022-11-12T09:34:00;102589.73;;;5.42;85.85
61478;BME280;47345;52.334;10.392;2022-11-12T09:36:31;102590.17;;;5.48;85.91
61478;BME280;47345;52.334;10.392;2022-11-12T09:39:08;102590.60;;;5.53;86.06
61478;BME280;47345;52.334;10.392;2022-11-12T09:41:40;102585.70;;;5.60;86.18
61478;BME280;47345;52.334;10.392;2022-11-12T09:44:13;102592.95;;;5.67;86.30
61478;BME280;47345;52.334;10.392;2022-11-12T09:46:47;102591.57;;;5.72;86.34
61478;BME280;47345;52.334;10.392;2022-11-12T09:49:20;102591.05;;;5.79;86.54
61478;BME280;47345;52.334;10.392;2022-11-12T09:51:54;102590.46;;;5.85;86.57
61478;BME280;47345;52.334;10.392;2022-11-12T09:54:27;102595.34;;;5.92;86.33
61478;BME280;47345;52.334;10.392;2022-11-12T09:57:00;102590.86;;;5.98;86.46
61478;BME280;47345;52.334;10.392;2022-11-12T09:59:33;102586.55;;;6.04;86.55
61478;BME280;47345;52.334;10.392;2022-11-12T10:02:18;102586.77;;;6.10;86.46
61478;BME280;47345;52.334;10.392;2022-11-12T10:05:05;102585.13;;;6.17;86.50
61478;BME280;47345;52.334;10.392;2022-11-12T10:07:50;102586.55;;;6.24;86.55
61478;BME280;47345;52.334;10.392;2022-11-12T10:10:32;102581.30;;;6.30;86.64
61478;BME280;47345;52.334;10.392;2022-11-12T10:13:17;102573.54;;;6.36;86.45
61478;BME280;47345;52.334;10.392;2022-11-12T10:16:00;102578.89;;;6.43;86.74
61478;BME280;47345;52.334;10.392;2022-11-12T10:19:00;102579.09;;;6.51;86.88
61478;BME280;47345;52.334;10.392;2022-11-12T10:21:38;102583.66;;;6.59;87.00
61478;BME280;47345;52.334;10.392;2022-11-12T10:24:11;102577.19;;;6.67;86.76
61478;BME280;47345;52.334;10.392;2022-11-12T10:26:42;102574.22;;;6.73;86.75
61478;BME280;47345;52.334;10.392;2022-11-12T10:29:21;102575.23;;;6.81;86.68
61478;BME280;47345;52.334;10.392;2022-11-12T10:31:56;102571.88;;;6.90;86.81
61478;BME280;47345;52.334;10.392;2022-11-12T10:34:27;102572.31;;;6.97;86.95
61478;BME280;47345;52.334;10.392;2022-11-12T10:37:01;102573.89;;;7.04;86.88
61478;BME280;47345;52.334;10.392;2022-11-12T10:39:38;102575.30;;;7.10;86.73
61478;BME280;47345;52.334;10.392;2022-11-12T10:42:11;102572.16;;;7.17;86.80
61478;BME280;47345;52.334;10.392;2022-11-12T10:44:42;102569.92;;;7.24;86.98
61478;BME280;47345;52.334;10.392;2022-11-12T10:47:26;102556.52;;;7.29;86.92
61478;BME280;47345;52.334;10.392;2022-11-12T10:50:17;102558.05;;;7.34;86.92
61478;BME280;47345;52.334;10.392;2022-11-12T10:52:56;102558.55;;;7.41;86.85
61478;BME280;47345;52.334;10.392;2022-11-12T10:55:28;102550.23;;;7.46;86.92
61478;BME280;47345;52.334;10.392;2022-11-12T10:58:11;102554.11;;;7.52;87.03
61478;BME280;47345;52.334;10.392;2022-11-12T11:01:01;102552.33;;;7.57;86.93
61478;BME280;47345;52.334;10.392;2022-11-12T11:03:32;102553.80;;;7.63;86.89
61478;BME280;47345;52.334;10.392;2022-11-12T11:06:05;102552.08;;;7.68;86.89
61478;BME280;47345;52.334;10.392;2022-11-12T11:08:39;102548.61;;;7.72;86.79
61478;BME280;47345;52.334;10.392;2022-11-12T11:11:20;102551.27;;;7.77;86.91
61478;BME280;47345;52.334;10.392;2022-11-12T11:13:51;102555.54;;;7.81;87.11
61478;BME280;47345;52.334;10.392;2022-11-12T11:16:26;102553.39;;;7.87;87.60
61478;BME280;47345;52.334;10.392;2022-11-12T11:18:58;102542.82;;;7.93;87.46
61478;BME280;47345;52.334;10.392;2022-11-12T11:21:43;102528.30;;;7.99;87.54
61478;BME280;47345;52.334;10.392;2022-11-12T11:24:25;102531.40;;;8.05;87.31
61478;BME280;47345;52.334;10.392;2022-11-12T11:27:01;102535.38;;;8.10;87.22
61478;BME280;47345;52.334;10.392;2022-11-12T11:32:40;102521.95;;;8.26;86.92
61478;BME280;47345;52.334;10.392;2022-11-12T11:35:23;102518.28;;;8.34;87.03
61478;BME280;47345;52.334;10.392;2022-11-12T11:38:10;102515.81;;;8.40;87.07
61478;BME280;47345;52.334;10.392;2022-11-12T11:40:54;102517.02;;;8.51;87.01
61478;BME280;47345;52.334;10.392;2022-11-12T11:43:42;102515.52;;;8.60;87.16
61478;BME280;47345;52.334;10.392;2022-11-12T11:46:27;102518.02;;;8.71;86.93
61478;BME280;47345;52.334;10.392;2022-11-12T11:49:14;102515.39;;;8.79;86.86
61478;BME280;47345;52.334;10.392;2022-11-12T11:51:53;102513.41;;;8.86;86.49
61478;BME280;47345;52.334;10.392;2022-11-12T11:54:39;102517.60;;;8.93;86.38
61478;BME280;47345;52.334;10.392;2022-11-12T11:57:19;102515.40;;;9.01;86.56
61478;BME280;47345;52.334;10.392;2022-11-12T12:00:02;102511.02;;;9.10;86.38
61478;BME280;47345;52.334;10.392;2022-11-12T12:02:44;102504.64;;;9.18;86.02
61478;BME280;47345;52.334;10.392;2022-11-12T12:05:31;102502.42;;;9.23;85.60
61478;BME280;47345;52.334;10.392;2022-11-12T12:08:07;102504.94;;;9.29;85.56
61478;BME280;47345;52.334;10.392;2022-11-12T12:10:45;102500.90;;;9.35;85.57
61478;BME280;47345;52.334;10.392;2022-11-12T12:13:44;102500.42;;;9.43;85.66
61478;BME280;47345;52.334;10.392;2022-11-12T12:16:29;102500.88;;;9.50;85.56
61478;BME280;47345;52.334;10.392;2022-11-12T12:19:09;102497.31;;;9.58;85.27
61478;BME280;47345;52.334;10.392;2022-11-12T12:21:45;102496.27;;;9.65;85.06
61478;BME280;47345;52.334;10.392;2022-11-12T12:24:21;102500.36;;;9.71;84.32
61478;BME280;47345;52.334;10.392;2022-11-12T12:26:56;102497.55;;;9.79;83.91
61478;BME280;47345;52.334;10.392;2022-11-12T12:29:35;102493.89;;;9.88;83.36
61478;BME280;47345;52.334;10.392;2022-11-12T12:32:12;102494.11;;;9.94;83.00
61478;BME280;47345;52.334;10.392;2022-11-12T12:34:55;102491.23;;;10.01;82.72
61478;BME280;47345;52.334;10.392;2022-11-12T12:37:34;102487.43;;;10.08;82.14
61478;BME280;47345;52.334;10.392;2022-11-12T12:40:14;102486.64;;;10.14;82.08
61478;BME280;47345;52.334;10.392;2022-11-12T12:42:49;102483.40;;;10.20;81.86
61478;BME280;47345;52.334;10.392;2022-11-12T12:45:37;102486.33;;;10.25;81.79
61478;BME280;47345;52.334;10.392;2022-11-12T12:48:14;102488.34;;;10.30;81.31
61478;BME280;47345;52.334;10.392;2022-11-12T12:50:47;102485.77;;;10.34;81.19
61478;BME280;47345;52.334;10.392;2022-11-12T12:53:32;102481.44;;;10.38;81.17
61478;BME280;47345;52.334;10.392;2022-11-12T12:56:04;102473.17;;;10.40;81.11
61478;BME280;47345;52.334;10.392;2022-11-12T12:58:43;102476.09;;;10.41;81.09
61478;BME280;47345;52.334;10.392;2022-11-12T13:01:28;102472.96;;;10.43;80.96
61478;BME280;47345;52.334;10.392;2022-11-12T13:04:00;102471.46;;;10.46;80.77
61478;BME280;47345;52.334;10.392;2022-11-12T13:06:36;102471.03;;;10.50;80.98
61478;BME280;47345;52.334;10.392;2022-11-12T13:09:21;102472.98;;;10.56;80.76
61478;BME280;47345;52.334;10.392;2022-11-12T13:11:54;102473.44;;;10.61;80.19
61478;BME280;47345;52.334;10.392;2022-11-12T13:14:51;102471.73;;;10.67;79.75
61478;BME280;47345;52.334;10.392;2022-11-12T13:17:43;102470.65;;;10.69;79.59
61478;BME280;47345;52.334;10.392;2022-11-12T13:20:35;102466.92;;;10.69;79.29
61478;BME280;47345;52.334;10.392;2022-11-12T13:23:43;102472.38;;;10.74;78.97
61478;BME280;47345;52.334;10.392;2022-11-12T13:26:47;102478.20;;;10.82;78.78
61478;BME280;47345;52.334;10.392;2022-11-12T13:29:40;102479.58;;;10.86;78.42